createdAt,value
2022-08-17T00:01:31.490Z,25.92
2022-08-17T00:04:19.521Z,25.92
2022-08-17T00:06:49.158Z,25.92
2022-08-17T00:09:18.640Z,25.90
2022-08-17T00:12:42.084Z,25.87
2022-08-17T00:14:39.018Z,25.86
2022-08-17T00:17:06.546Z,25.82
2022-08-17T00:19:33.287Z,25.82
2022-08-17T00:22:31.642Z,25.82
2022-08-17T00:24:50.466Z,25.80
2022-08-17T00:27:17.926Z,25.80
2022-08-17T00:29:46.076Z,25.78
2022-08-17T00:33:15.479Z,25.78
2022-08-17T00:35:00.811Z,25.76
2022-08-17T00:37:27.776Z,25.75
2022-08-17T00:39:54.560Z,25.74
2022-08-17T00:42:21.307Z,25.73
2022-08-17T00:44:48.077Z,25.73
2022-08-17T00:47:14.817Z,25.72
2022-08-17T00:49:41.733Z,25.71
2022-08-17T00:52:15.641Z,25.71
2022-08-17T00:54:45.501Z,25.71
2022-08-17T00:57:32.612Z,25.69
2022-08-17T01:00:11.973Z,25.70
2022-08-17T01:02:43.282Z,25.69
2022-08-17T01:05:19.022Z,25.68
2022-08-17T01:07:47.392Z,25.67
2022-08-17T01:10:59.084Z,25.67
2022-08-17T01:13:04.940Z,25.65
2022-08-17T01:15:35.879Z,25.66
2022-08-17T01:18:03.998Z,25.64
2022-08-17T01:20:30.756Z,25.61
2022-08-17T01:23:09.809Z,25.61
2022-08-17T01:25:38.924Z,25.61
2022-08-17T01:28:05.839Z,25.60
2022-08-17T01:30:56.825Z,25.61
2022-08-17T01:33:23.225Z,25.58
2022-08-17T01:35:50.822Z,25.58
2022-08-17T01:38:18.325Z,25.58
2022-08-17T01:40:58.158Z,25.58
2022-08-17T01:43:27.731Z,25.56
2022-08-17T01:46:03.342Z,25.56
2022-08-17T01:48:36.314Z,25.55
2022-08-17T01:51:04.102Z,25.54
2022-08-17T01:53:35.427Z,25.54
2022-08-17T01:56:09.117Z,25.53
2022-08-17T01:58:37.075Z,25.51
2022-08-17T02:01:05.116Z,25.50
2022-08-17T02:03:32.553Z,25.51
2022-08-17T02:05:59.405Z,25.50
2022-08-17T02:08:39.047Z,25.49
2022-08-17T02:11:17.645Z,25.49
2022-08-17T02:13:46.005Z,25.47
2022-08-17T02:16:13.550Z,25.47
2022-08-17T02:18:40.642Z,25.48
2022-08-17T02:21:07.670Z,25.48
2022-08-17T02:23:37.272Z,25.49
2022-08-17T02:26:04.140Z,25.48
2022-08-17T02:28:31.108Z,25.47
2022-08-17T02:31:01.128Z,25.46
2022-08-17T02:33:41.784Z,25.46
2022-08-17T02:36:09.575Z,25.44
2022-08-17T02:38:37.525Z,25.45
2022-08-17T02:41:04.722Z,25.46
2022-08-17T02:43:31.993Z,25.44
2022-08-17T02:45:58.660Z,25.41
2022-08-17T02:48:30.853Z,25.39
2022-08-17T02:50:59.149Z,25.39
2022-08-17T02:53:25.970Z,25.37
2022-08-17T02:55:53.071Z,25.38
2022-08-17T02:58:35.510Z,25.35
2022-08-17T03:01:05.085Z,25.35
2022-08-17T03:03:32.296Z,25.34
2022-08-17T03:05:58.979Z,25.33
2022-08-17T03:08:25.762Z,25.32
2022-08-17T03:10:52.508Z,25.31
2022-08-17T03:13:19.641Z,25.29
2022-08-17T03:15:46.776Z,25.28
2022-08-17T03:18:24.932Z,25.27
2022-08-17T03:20:54.903Z,25.28
2022-08-17T03:23:24.033Z,25.30
2022-08-17T03:25:53.377Z,25.29
2022-08-17T03:28:21.361Z,25.32
2022-08-17T03:30:48.126Z,25.33
2022-08-17T03:33:15.202Z,25.37
2022-08-17T03:35:41.942Z,25.36
2022-08-17T03:38:10.778Z,25.35
2022-08-17T03:40:56.753Z,25.33
2022-08-17T03:43:25.208Z,25.31
2022-08-17T03:46:28.423Z,25.33
2022-08-17T03:49:16.221Z,25.34
2022-08-17T03:52:01.509Z,25.37
2022-08-17T03:54:46.611Z,25.38
2022-08-17T03:57:13.785Z,25.40
2022-08-17T03:59:41.053Z,25.37
2022-08-17T04:02:22.735Z,25.30
2022-08-17T04:04:51.186Z,25.19
2022-08-17T04:07:22.431Z,25.16
2022-08-17T04:09:49.444Z,25.15
2022-08-17T04:12:18.021Z,25.14
2022-08-17T04:14:53.481Z,25.08
2022-08-17T04:17:27.268Z,25.05
2022-08-17T04:19:54.580Z,24.99
2022-08-17T04:22:30.441Z,24.95
2022-08-17T04:25:05.359Z,25.00
2022-08-17T04:27:32.066Z,25.06
2022-08-17T04:29:58.871Z,25.10
2022-08-17T04:33:04.552Z,25.08
2022-08-17T04:35:12.306Z,25.01
2022-08-17T04:37:38.983Z,25.02
2022-08-17T04:40:25.922Z,25.00
2022-08-17T04:43:15.647Z,24.95
2022-08-17T04:45:55.058Z,24.88
2022-08-17T04:48:23.943Z,24.82
2022-08-17T04:51:01.539Z,24.82
2022-08-17T04:53:28.378Z,24.80
2022-08-17T04:55:55.673Z,24.80
2022-08-17T04:58:22.563Z,24.76
2022-08-17T05:00:49.375Z,24.73
2022-08-17T05:03:16.157Z,24.65
2022-08-17T05:05:44.746Z,24.70
2022-08-17T05:08:15.784Z,24.76
2022-08-17T05:10:45.082Z,24.77
2022-08-17T05:13:17.796Z,24.83
2022-08-17T05:15:47.589Z,24.84
2022-08-17T05:18:15.588Z,24.81
2022-08-17T05:20:43.156Z,24.83
2022-08-17T05:23:15.693Z,24.85
2022-08-17T05:25:48.546Z,24.87
2022-08-17T05:28:19.021Z,24.89
2022-08-17T05:30:49.824Z,24.88
2022-08-17T05:33:19.665Z,24.86
2022-08-17T05:35:48.481Z,24.86
2022-08-17T05:38:16.625Z,24.79
2022-08-17T05:40:43.901Z,24.69
2022-08-17T05:43:15.796Z,24.65
2022-08-17T05:45:55.907Z,24.64
2022-08-17T05:48:35.444Z,24.68
2022-08-17T05:51:37.633Z,24.74
2022-08-17T05:54:21.365Z,24.67
2022-08-17T05:57:00.361Z,24.80
2022-08-17T05:59:33.833Z,24.84
2022-08-17T06:02:27.403Z,24.83
2022-08-17T06:05:33.535Z,24.82
2022-08-17T06:08:25.759Z,24.83
2022-08-17T06:10:58.381Z,24.85
2022-08-17T06:13:49.880Z,24.82
2022-08-17T06:16:33.376Z,24.85
2022-08-17T06:19:24.087Z,24.85
2022-08-17T06:21:53.679Z,24.80
2022-08-17T06:24:43.133Z,24.71
2022-08-17T06:27:37.137Z,24.64
2022-08-17T06:30:05.570Z,24.63
2022-08-17T06:32:32.336Z,24.64
2022-08-17T06:35:00.592Z,24.64
2022-08-17T06:37:56.150Z,24.63
2022-08-17T06:40:50.841Z,24.66
2022-08-17T06:43:27.734Z,24.72
2022-08-17T06:46:01.944Z,24.76
2022-08-17T06:48:47.401Z,24.74
2022-08-17T06:51:43.466Z,24.74
2022-08-17T06:54:25.208Z,24.79
2022-08-17T06:57:05.434Z,24.84
2022-08-17T06:59:54.444Z,24.86
2022-08-17T07:02:53.068Z,24.82
2022-08-17T07:05:23.520Z,24.80
2022-08-17T07:08:01.949Z,24.77
2022-08-17T07:10:34.146Z,24.77
2022-08-17T07:13:14.139Z,24.78
2022-08-17T07:15:45.114Z,24.81
2022-08-17T07:18:11.846Z,24.84
2022-08-17T07:20:43.019Z,24.85
2022-08-17T07:23:34.114Z,24.83
2022-08-17T07:26:05.937Z,24.83
2022-08-17T07:28:33.189Z,24.83
2022-08-17T07:31:00.179Z,24.85
2022-08-17T07:33:29.674Z,24.88
2022-08-17T07:35:58.228Z,24.88
2022-08-17T07:38:30.311Z,24.88
2022-08-17T07:41:03.426Z,24.89
2022-08-17T07:43:35.944Z,24.92
2022-08-17T07:46:32.715Z,24.91
2022-08-17T07:49:08.073Z,24.91
2022-08-17T07:51:48.094Z,24.91
2022-08-17T07:54:22.377Z,24.91
2022-08-17T07:56:54.773Z,24.92
2022-08-17T07:59:27.238Z,24.93
2022-08-17T08:02:03.919Z,24.90
2022-08-17T08:05:01.137Z,24.91
2022-08-17T08:08:06.153Z,24.89
2022-08-17T08:10:39.016Z,24.88
2022-08-17T08:13:23.243Z,24.87
2022-08-17T08:15:56.309Z,24.87
2022-08-17T08:18:54.967Z,24.87
2022-08-17T08:21:38.791Z,24.84
2022-08-17T08:24:57.005Z,24.81
2022-08-17T08:27:49.662Z,24.82
2022-08-17T08:30:19.809Z,24.81
2022-08-17T08:33:10.201Z,24.84
2022-08-17T08:35:53.736Z,24.84
2022-08-17T08:38:28.813Z,24.81
2022-08-17T08:41:08.681Z,24.80
2022-08-17T08:43:50.873Z,24.78
2022-08-17T08:46:25.354Z,24.76
2022-08-17T08:49:06.460Z,24.77
2022-08-17T08:51:42.980Z,24.81
2022-08-17T08:54:43.993Z,24.84
2022-08-17T08:57:34.357Z,24.88
2022-08-17T09:00:01.362Z,24.89
2022-08-17T09:02:37.239Z,24.91
2022-08-17T09:05:21.951Z,24.92
2022-08-17T09:07:57.343Z,24.91
2022-08-17T09:10:29.576Z,24.91
2022-08-17T09:12:59.104Z,24.94
2022-08-17T09:15:38.498Z,24.94
2022-08-17T09:21:00.395Z,24.95
2022-08-17T09:23:38.062Z,24.97
2022-08-17T09:26:23.066Z,24.96
2022-08-17T09:29:00.416Z,24.97
2022-08-17T09:31:49.375Z,24.97
2022-08-17T09:34:21.321Z,24.99
2022-08-17T09:37:00.552Z,24.99
2022-08-17T09:39:43.681Z,25.01
2022-08-17T09:42:22.933Z,25.04
2022-08-17T09:44:56.708Z,25.05
2022-08-17T09:47:32.179Z,25.06
2022-08-17T09:51:05.224Z,25.06
2022-08-17T09:53:09.410Z,25.08
2022-08-17T09:55:58.166Z,25.11
2022-08-17T09:58:34.606Z,25.11
2022-08-17T10:01:10.741Z,24.99
2022-08-17T10:03:58.166Z,25.08
2022-08-17T10:06:29.369Z,25.11
2022-08-17T10:09:08.473Z,25.10
2022-08-17T10:12:17.271Z,25.10
2022-08-17T10:15:07.919Z,25.09
2022-08-17T10:17:55.728Z,25.09
2022-08-17T10:20:40.034Z,25.08
2022-08-17T10:23:29.764Z,25.09
2022-08-17T10:26:13.973Z,25.11
2022-08-17T10:28:49.034Z,25.12
2022-08-17T10:31:35.533Z,25.12
2022-08-17T10:34:20.694Z,25.14
2022-08-17T10:37:08.889Z,25.15
2022-08-17T10:40:00.348Z,25.14
2022-08-17T10:42:50.388Z,25.14
2022-08-17T10:45:19.839Z,25.14
2022-08-17T10:48:14.741Z,25.14
2022-08-17T10:50:46.426Z,25.15
2022-08-17T10:53:49.598Z,25.13
2022-08-17T10:56:18.918Z,25.16
2022-08-17T10:58:47.273Z,25.16
2022-08-17T11:01:13.998Z,25.15
2022-08-17T11:03:53.687Z,25.15
2022-08-17T11:06:42.093Z,25.15
2022-08-17T11:09:27.884Z,25.16
2022-08-17T11:12:12.437Z,25.17
2022-08-17T11:14:58.118Z,25.15
2022-08-17T11:17:43.329Z,25.17
2022-08-17T11:20:39.555Z,25.16
2022-08-17T11:23:32.727Z,25.16
2022-08-17T11:26:04.185Z,25.18
2022-08-17T11:28:46.376Z,25.17
2022-08-17T11:31:39.893Z,25.17
2022-08-17T11:34:06.702Z,25.17
2022-08-17T11:37:07.997Z,25.17
2022-08-17T11:39:43.785Z,25.16
2022-08-17T11:42:39.085Z,25.15
2022-08-17T11:45:43.086Z,25.16
2022-08-17T11:48:55.879Z,25.15
2022-08-17T11:51:34.426Z,25.15
2022-08-17T11:54:31.274Z,25.17
2022-08-17T11:56:51.974Z,25.15
2022-08-17T11:59:45.006Z,25.14
2022-08-17T12:02:32.884Z,25.14
2022-08-17T12:05:14.460Z,25.15
2022-08-17T12:07:46.787Z,25.14
2022-08-17T12:10:21.645Z,25.15
2022-08-17T12:12:50.537Z,25.16
2022-08-17T12:15:28.737Z,25.15
2022-08-17T12:17:56.998Z,25.15
2022-08-17T12:20:31.210Z,25.16
2022-08-17T12:23:24.481Z,25.15
2022-08-17T12:26:19.966Z,25.14
2022-08-17T12:28:49.116Z,25.16
2022-08-17T12:31:35.584Z,25.15
2022-08-17T12:34:04.352Z,25.16
2022-08-17T12:36:32.875Z,25.17
2022-08-17T12:39:12.931Z,25.18
2022-08-17T12:41:44.838Z,25.18
2022-08-17T12:44:12.382Z,25.18
2022-08-17T12:46:54.065Z,25.18
2022-08-17T12:49:24.875Z,25.17
2022-08-17T12:52:04.539Z,25.17
2022-08-17T12:55:11.210Z,25.14
2022-08-17T12:57:51.478Z,25.14
2022-08-17T13:00:26.989Z,25.13
2022-08-17T13:03:17.212Z,25.13
2022-08-17T13:05:57.545Z,25.14
2022-08-17T13:08:35.226Z,25.16
2022-08-17T13:11:03.926Z,25.16
2022-08-17T13:13:36.806Z,25.17
2022-08-17T13:16:07.092Z,25.16
2022-08-17T13:18:39.211Z,25.16
2022-08-17T13:21:23.930Z,25.14
2022-08-17T13:24:30.056Z,25.12
2022-08-17T13:27:08.146Z,25.13
2022-08-17T13:29:51.431Z,25.15
2022-08-17T13:32:44.009Z,25.15
2022-08-17T13:35:39.924Z,25.17
2022-08-17T13:38:07.162Z,25.17
2022-08-17T13:40:36.814Z,25.19
2022-08-17T13:43:03.709Z,25.18
2022-08-17T13:45:39.669Z,25.19
2022-08-17T13:48:11.842Z,25.21
2022-08-17T13:50:50.040Z,25.22
2022-08-17T13:53:21.231Z,25.23
2022-08-17T13:56:33.471Z,25.23
2022-08-17T13:59:00.269Z,25.23
2022-08-17T14:01:36.197Z,25.24
2022-08-17T14:04:12.544Z,25.24
2022-08-17T14:07:12.587Z,25.23
2022-08-17T14:10:01.011Z,25.23
2022-08-17T14:12:31.456Z,25.25
2022-08-17T14:14:59.000Z,25.25
2022-08-17T14:17:26.651Z,25.25
2022-08-17T14:19:53.398Z,25.25
2022-08-17T14:22:30.723Z,25.26
2022-08-17T14:24:58.761Z,25.25
2022-08-17T14:27:28.279Z,25.26
2022-08-17T14:29:55.999Z,25.26
2022-08-17T14:32:25.983Z,25.27
2022-08-17T14:34:53.451Z,25.26
2022-08-17T14:37:21.472Z,25.26
2022-08-17T14:39:48.527Z,25.27
2022-08-17T14:42:15.632Z,25.25
2022-08-17T14:44:42.361Z,25.23
2022-08-17T14:47:15.098Z,25.22
2022-08-17T14:49:42.386Z,25.21
2022-08-17T14:52:12.250Z,25.23
2022-08-17T14:54:42.510Z,25.22
2022-08-17T14:57:25.875Z,25.21
2022-08-17T14:59:59.738Z,25.22
2022-08-17T15:02:31.186Z,25.21
2022-08-17T15:05:06.058Z,25.20
2022-08-17T15:07:32.839Z,25.21
2022-08-17T15:10:01.398Z,25.21
2022-08-17T15:12:32.762Z,25.21
2022-08-17T15:15:01.622Z,25.22
2022-08-17T15:17:44.816Z,25.23
2022-08-17T15:20:18.185Z,25.24
2022-08-17T15:22:45.872Z,25.23
2022-08-17T15:25:14.156Z,25.23
2022-08-17T15:27:42.910Z,25.22
2022-08-17T15:30:10.380Z,25.23
2022-08-17T15:32:39.873Z,25.22
2022-08-17T15:35:11.850Z,25.23
2022-08-17T15:37:40.301Z,25.25
2022-08-17T15:40:09.083Z,25.25
2022-08-17T15:42:35.954Z,25.26
2022-08-17T15:45:12.328Z,25.29
2022-08-17T15:47:39.049Z,25.18
2022-08-17T15:50:07.254Z,25.26
2022-08-17T15:52:40.477Z,25.28
2022-08-17T15:55:12.166Z,25.29
2022-08-17T15:57:38.915Z,25.29
2022-08-17T16:00:07.815Z,25.32
2022-08-17T16:03:45.127Z,25.33
2022-08-17T16:05:24.951Z,25.33
2022-08-17T16:07:52.606Z,25.33
2022-08-17T16:10:19.817Z,25.33
2022-08-17T16:12:48.966Z,25.37
2022-08-17T16:15:17.236Z,25.35
2022-08-17T16:17:43.938Z,25.34
2022-08-17T16:20:20.597Z,25.33
2022-08-17T16:22:49.233Z,25.33
2022-08-17T16:25:49.213Z,25.32
2022-08-17T16:28:16.929Z,25.31
2022-08-17T16:30:43.940Z,25.32
2022-08-17T16:33:11.757Z,25.32
2022-08-17T16:35:38.873Z,25.33
2022-08-17T16:38:07.214Z,25.29
2022-08-17T16:40:36.183Z,25.29
2022-08-17T16:43:04.313Z,25.27
2022-08-17T16:45:36.919Z,25.21
2022-08-17T16:48:04.586Z,25.19
2022-08-17T16:50:32.161Z,25.17
2022-08-17T16:53:06.748Z,25.16
2022-08-17T16:55:35.698Z,25.13
2022-08-17T16:58:06.033Z,25.14
2022-08-17T17:00:33.869Z,25.14
2022-08-17T17:03:29.861Z,25.07
2022-08-17T17:06:18.866Z,25.06
2022-08-17T17:08:50.759Z,25.09
2022-08-17T17:11:34.409Z,25.11
2022-08-17T17:14:04.422Z,25.14
2022-08-17T17:17:13.146Z,25.13
2022-08-17T17:20:00.860Z,25.15
2022-08-17T17:23:06.507Z,25.16
2022-08-17T17:26:04.987Z,25.16
2022-08-17T17:28:40.612Z,25.15
2022-08-17T17:31:20.006Z,25.12
2022-08-17T17:33:50.707Z,25.08
2022-08-17T17:36:25.880Z,25.00
2022-08-17T17:39:05.413Z,24.91
2022-08-17T17:41:48.099Z,24.85
2022-08-17T17:44:25.354Z,24.81
2022-08-17T17:46:56.323Z,24.79
2022-08-17T17:49:24.105Z,24.75
2022-08-17T17:52:06.525Z,24.71
2022-08-17T17:54:50.974Z,24.69
2022-08-17T17:57:50.789Z,24.64
2022-08-17T18:00:22.115Z,24.64
2022-08-17T18:03:18.978Z,24.62
2022-08-17T18:06:04.128Z,24.62
2022-08-17T18:08:44.418Z,24.61
2022-08-17T18:11:15.170Z,24.55
2022-08-17T18:14:17.849Z,24.52
2022-08-17T18:16:46.594Z,24.52
2022-08-17T18:19:16.115Z,24.51
2022-08-17T18:21:46.546Z,24.47
2022-08-17T18:24:13.899Z,24.43
2022-08-17T18:26:45.679Z,24.46
2022-08-17T18:29:34.656Z,24.47
2022-08-17T18:32:31.616Z,24.49
2022-08-17T18:35:10.242Z,24.50
2022-08-17T18:37:51.780Z,24.50
2022-08-17T18:40:19.744Z,24.50
2022-08-17T18:43:06.731Z,24.51
2022-08-17T18:45:51.294Z,24.49
2022-08-17T18:48:24.705Z,24.49
2022-08-17T18:50:53.755Z,24.49
2022-08-17T18:53:20.727Z,24.48
2022-08-17T18:56:15.906Z,24.50
2022-08-17T18:58:42.878Z,24.45
2022-08-17T19:01:19.116Z,24.44
2022-08-17T19:03:46.156Z,24.39
2022-08-17T19:06:25.956Z,24.41
2022-08-17T19:08:52.883Z,24.40
2022-08-17T19:11:24.984Z,24.42
2022-08-17T19:13:52.794Z,24.42
2022-08-17T19:16:38.782Z,24.43
2022-08-17T19:19:14.647Z,24.42
2022-08-17T19:22:16.995Z,24.39
2022-08-17T19:25:09.363Z,24.41
2022-08-17T19:28:15.362Z,24.38
2022-08-17T19:30:52.570Z,24.38
2022-08-17T19:33:19.626Z,24.38
2022-08-17T19:35:55.783Z,24.37
2022-08-17T19:38:35.257Z,24.35
2022-08-17T19:41:07.862Z,24.34
2022-08-17T19:43:48.210Z,24.34
2022-08-17T19:46:30.603Z,24.33
2022-08-17T19:49:18.111Z,24.31
2022-08-17T19:52:14.155Z,24.25
2022-08-17T19:54:55.601Z,24.19
2022-08-17T19:57:24.928Z,24.13
2022-08-17T20:00:03.854Z,24.08
2022-08-17T20:02:56.606Z,23.99
2022-08-17T20:06:08.548Z,23.97
2022-08-17T20:08:27.399Z,23.93
2022-08-17T20:10:58.833Z,23.89
2022-08-17T20:13:45.694Z,23.80
2022-08-17T20:16:12.617Z,23.64
2022-08-17T20:18:44.413Z,23.74
2022-08-17T20:21:29.133Z,23.80
2022-08-17T20:24:16.627Z,23.82
2022-08-17T20:26:59.781Z,23.83
2022-08-17T20:29:40.006Z,23.82
2022-08-17T20:32:32.611Z,23.78
2022-08-17T20:35:09.800Z,23.78
2022-08-17T20:37:43.207Z,23.76
2022-08-17T20:40:09.894Z,23.74
2022-08-17T20:42:37.038Z,23.73
2022-08-17T20:45:26.270Z,23.70
2022-08-17T20:48:19.002Z,23.70
2022-08-17T20:50:56.732Z,23.67
2022-08-17T20:53:48.208Z,23.65
2022-08-17T20:56:49.359Z,23.61
2022-08-17T20:59:30.535Z,23.62
2022-08-17T21:02:19.090Z,23.60
2022-08-17T21:04:52.479Z,23.60
2022-08-17T21:07:42.860Z,23.58
2022-08-17T21:10:19.625Z,23.55
2022-08-17T21:13:08.685Z,23.56
2022-08-17T21:16:07.701Z,23.55
2022-08-17T21:18:44.897Z,23.63
2022-08-17T21:21:25.671Z,23.69
2022-08-17T21:24:26.075Z,23.74
2022-08-17T21:26:58.813Z,23.81
2022-08-17T21:29:31.151Z,23.87
2022-08-17T21:31:59.747Z,23.89
2022-08-17T21:34:30.197Z,23.94
2022-08-17T21:37:23.535Z,23.94
2022-08-17T21:40:18.580Z,23.96
2022-08-17T21:42:50.685Z,23.97
2022-08-17T21:45:31.238Z,23.99
2022-08-17T21:48:18.160Z,24.01
2022-08-17T21:50:47.769Z,24.03
2022-08-17T21:53:27.005Z,24.04
2022-08-17T21:55:56.244Z,24.05
2022-08-17T21:58:34.340Z,24.06
2022-08-17T22:01:19.648Z,24.07
2022-08-17T22:03:54.231Z,24.09
2022-08-17T22:06:29.550Z,24.09
2022-08-17T22:09:21.168Z,24.10
2022-08-17T22:11:47.824Z,24.10
2022-08-17T22:14:20.302Z,24.12
2022-08-17T22:16:47.908Z,24.11
2022-08-17T22:19:14.829Z,24.12
2022-08-17T22:21:41.551Z,24.12
2022-08-17T22:24:21.566Z,24.13
2022-08-17T22:27:11.611Z,24.13
2022-08-17T22:29:53.157Z,24.14
2022-08-17T22:32:37.579Z,24.15
2022-08-17T22:35:19.180Z,24.14
2022-08-17T22:37:45.852Z,24.15
2022-08-17T22:40:29.791Z,24.16
2022-08-17T22:42:58.172Z,24.17
2022-08-17T22:45:28.978Z,24.16
2022-08-17T22:47:58.813Z,24.16
2022-08-17T22:50:28.419Z,24.17
2022-08-17T22:53:20.011Z,24.17
2022-08-17T22:56:15.131Z,24.16
2022-08-17T22:59:12.738Z,24.17
2022-08-17T23:01:39.998Z,24.16
2022-08-17T23:04:29.924Z,24.17
2022-08-17T23:06:56.869Z,24.17
2022-08-17T23:09:23.618Z,24.17
2022-08-17T23:11:59.033Z,24.19
2022-08-17T23:14:31.807Z,24.19
2022-08-17T23:17:02.061Z,24.18
2022-08-17T23:19:31.508Z,24.19
2022-08-17T23:21:59.579Z,24.19
2022-08-17T23:24:28.322Z,24.19
2022-08-17T23:26:57.447Z,24.19
2022-08-17T23:29:25.871Z,24.19
2022-08-17T23:31:57.904Z,24.20
2022-08-17T23:34:25.800Z,24.20
2022-08-17T23:36:52.973Z,24.21
2022-08-17T23:39:24.764Z,24.20
2022-08-17T23:41:56.499Z,24.21
2022-08-17T23:44:23.616Z,24.21
2022-08-17T23:46:54.453Z,24.23
2022-08-17T23:49:21.535Z,24.21
2022-08-17T23:51:48.515Z,24.21
2022-08-17T23:54:23.988Z,24.23
2022-08-17T23:56:50.853Z,24.21
2022-08-17T23:59:19.589Z,24.22
